Cabrerets ULM

FR-0337 · Linguadoca-Rossiglione-Midi-Pirenei, Francia

2 ottobre 2022

Tempo Codice Tempo metereologico Temp. Vista Base nuvolosa Vento METAR/SPECI
10:30
I
17 °C 10 km+ 600 ft 080° 080° 3 kt METAR LFBA 020830Z AUTO 08003KT 040V110 9999 OVC006 17/16 Q1028 BECMG SCT020
10:00
I
16 °C 10 km+ 500 ft 110° 110° 3 kt METAR LFBA 020800Z AUTO 11003KT 060V130 9999 OVC005 16/16 Q1027 BECMG SCT020
09:30
L
16 °C 10 km+ 400 ft Var Var 3 kt METAR LFBA 020730Z AUTO VRB03KT 9999 BKN004 OVC011 16/16 Q1027 BECMG SCT020
09:00
L
15 °C 10 km+ 400 ft Var Var 3 kt METAR LFBA 020700Z AUTO VRB03KT 9999 BKN004 OVC011 15/15 Q1027 TEMPO 3000 BR BECMG OVC007
08:30
I
15 °C 9 km 500 ft 090° 090° 3 kt METAR LFBA 020630Z AUTO 09003KT 9000 OVC005 15/15 Q1027 TEMPO 3000 BR
08:00
I
15 °C 7 km 500 ft 110° 110° 4 kt METAR LFBA 020600Z AUTO 11004KT 7000 OVC005 15/15 Q1027
07:30
I
15 °C 10 km+ 600 ft 090° 090° 3 kt METAR LFBA 020530Z AUTO 09003KT 9999 OVC006 15/15 Q1027
07:00
I
15 °C 10 km+ 700 ft 150° 150° 3 kt METAR LFBA 020500Z AUTO 15003KT 9999 OVC007 15/15 Q1026
06:30
I
14 °C 10 km+ 600 ft 140° 140° 3 kt METAR LFBA 020430Z AUTO 14003KT 9999 OVC006 14/14 Q1026
06:00
I
14 °C 9 km 500 ft 140° 140° 1 kt METAR LFBA 020400Z AUTO 14001KT 9000 OVC005 14/14 Q1026
05:30
I
14 °C 8 km 500 ft 010° 010° 1 kt METAR LFBA 020330Z AUTO 01001KT 8000 OVC005 14/14 Q1026
05:00
I
14 °C 10 km+ 700 ft Var 000° 0 kt METAR LFBA 020300Z AUTO 00000KT 9999 OVC007 14/14 Q1026
04:30
I
13 °C 10 km+ 900 ft 190° 190° 1 kt METAR LFBA 020230Z AUTO 19001KT 9999 OVC009 13/13 Q1026
04:00
M
13 °C 10 km+ 1.200 ft Var Var 2 kt METAR LFBA 020200Z AUTO VRB02KT 9999 BKN012 13/13 Q1027
03:30
L
12 °C 800 m - 110° 110° 2 kt METAR LFBA 020130Z AUTO 11002KT 0800 R29/1000U FG NSC 12/12 Q1027
03:00
I
12 °C 4,5 km - 090° 090° 3 kt METAR LFBA 020100Z AUTO 09003KT 9999 4500 NSC 12/11 Q1027
02:30
V
12 °C 10 km+ - 110° 110° 2 kt METAR LFBA 020030Z AUTO 11002KT CAVOK 12/11 Q1027
02:00
I
13 °C 2,8 km - 090° 090° 2 kt METAR LFBA 020000Z AUTO 09002KT 2800 R29/1300U BR NSC 13/12 Q1027
01:30
I
13 °C 3,1 km - Var 000° 0 kt METAR LFBA 012330Z AUTO 00000KT 9999 3100 NSC 13/12 Q1027
01:00
V
14 °C 10 km+ - 180° 180° 2 kt METAR LFBA 012300Z AUTO 18002KT CAVOK 14/13 Q1027
00:30
V
15 °C 10 km+ - Var Var 1 kt METAR LFBA 012230Z AUTO VRB01KT CAVOK 15/13 Q1027
00:00
V
16 °C 10 km+ - Var Var 2 kt METAR LFBA 012200Z AUTO VRB02KT CAVOK 16/14 Q1027

1 ottobre 2022

Tempo Codice Tempo metereologico Temp. Vista Base nuvolosa Vento METAR/SPECI
23:30
V
17 °C 10 km+ - 200° 200° 3 kt METAR LFBA 012130Z AUTO 20003KT CAVOK 17/14 Q1026
23:00
V
18 °C 10 km+ - Var Var 3 kt METAR LFBA 012100Z AUTO VRB03KT CAVOK 18/14 Q1027
22:30
M
19 °C 10 km+ 2.300 ft 260° 260° 5 kt METAR LFBA 012030Z AUTO 26005KT 230V290 9999 BKN023 BKN058 19/15 Q1026
22:00
V
19 °C 10 km+ - 260° 260° 7 kt METAR LFBA 012000Z AUTO 26007KT 9999 SCT024 19/15 Q1026 BECMG BKN006
21:30
M
19 °C 10 km+ 2.500 ft 250° 250° 5 kt METAR LFBA 011930Z AUTO 25005KT 9999 OVC025 19/15 Q1026 BECMG BKN006
21:00
M
19 °C 10 km+ 2.700 ft 260° 260° 6 kt METAR LFBA 011900Z AUTO 26006KT 9999 BKN027 19/15 Q1026 TEMPO BKN006
20:30
V
20 °C 10 km+ 3.000 ft 260° 260° 6 kt METAR LFBA 011830Z AUTO 26006KT 230V290 9999 BKN030 20/15 Q1025 BECMG BKN006
20:00
V
20 °C 10 km+ 3.000 ft 260° 260° 8 kt METAR LFBA 011800Z AUTO 26008KT 220V280 9999 OVC030 20/15 Q1025 BECMG BKN006
19:30
V
21 °C 10 km+ 3.400 ft 260° 260° 8 kt METAR LFBA 011730Z AUTO 26008KT 230V290 9999 BKN034 BKN048 21/15 Q1025 BECMG BKN006
19:00
V
21 °C 10 km+ 3.600 ft 270° 270° 10 kt METAR LFBA 011700Z AUTO 27010KT 9999 BKN036 BKN044 OVC062 21/15 Q1024 BECMG BKN013
18:30
V
21 °C 10 km+ 3.100 ft 270° 270° 9 kt METAR LFBA 011630Z AUTO 27009KT 230V290 9999 OVC031 21/15 Q1024 BECMG BKN013
18:00
V
22 °C 10 km+ 3.400 ft 270° 270° 10 kt METAR LFBA 011600Z AUTO 27010KT 9999 BKN034 OVC050 22/15 Q1024 BECMG BKN013
17:30
V
21 °C 10 km+ 5.000 ft 280° 280° 11 kt METAR LFBA 011530Z AUTO 28011KT 9999 FEW034 OVC050 21/15 Q1024 BECMG BKN013
17:00
V
22 °C 10 km+ 4.100 ft 280° 280° 14 kt METAR LFBA 011500Z AUTO 28014KT 9999 SCT035 BKN041 OVC056 22/15 Q1024 BECMG BKN013
16:30
V
22 °C 10 km+ 3.200 ft 270° 270° 13 kt METAR LFBA 011430Z AUTO 27013KT 9999 BKN032 BKN038 OVC060 22/15 Q1024 TEMPO BKN013
16:00
V
22 °C 10 km+ 3.000 ft 280° 280° 13 kt METAR LFBA 011400Z AUTO 28013KT 240V300 9999 BKN030 OVC038 22/15 Q1023 TEMPO BKN013
15:30
M
22 °C 10 km+ 2.900 ft 270° 270° 12 kt METAR LFBA 011330Z AUTO 27012KT 230V290 9999 BKN029 OVC035 22/15 Q1023 TEMPO BKN013
15:00
V
22 °C 10 km+ 3.500 ft 280° 280° 13 kt METAR LFBA 011300Z AUTO 28013KT 9999 OVC035 22/15 Q1023 TEMPO BKN013
14:30
V
22 °C 10 km+ 3.100 ft 250° 250° 9 kt METAR LFBA 011230Z AUTO 25009KT 210V280 9999 BKN031 BKN040 OVC049 22/15 Q1023 TEMPO BKN013
14:00
V
21 °C 10 km+ 3.200 ft 260° 260° 12 kt METAR LFBA 011200Z AUTO 26012KT 210V290 9999 OVC032 21/14 Q1023 TEMPO BKN013
13:30
V
21 °C 10 km+ 3.100 ft 270° 270° 13 kt METAR LFBA 011130Z AUTO 27013KT 230V300 9999 BKN031 21/14 Q1023 TEMPO BKN013
13:00
V
22 °C 10 km+ 5.400 ft 260° 260° 10 kt METAR LFBA 011100Z AUTO 26010KT 230V300 9999 SCT031 BKN054 22/13 Q1023 TEMPO BKN013
12:30
V
21 °C 10 km+ - 250° 250° 11 kt METAR LFBA 011030Z AUTO 25011KT 220V290 9999 FEW031 21/14 Q1023 TEMPO BKN013
12:00
V
20 °C 10 km+ 6.000 ft 260° 260° 10 kt METAR LFBA 011000Z AUTO 26010KT 210V290 9999 FEW026 BKN060 20/13 Q1023 TEMPO BKN013
11:30
M
19 °C 10 km+ 2.600 ft 250° 250° 10 kt METAR LFBA 010930Z AUTO 25010KT 210V280 9999 BKN026 OVC058 19/13 Q1023 TEMPO BKN013
11:00
V
18 °C 10 km+ 3.700 ft 260° 260° 9 kt METAR LFBA 010900Z AUTO 26009KT 230V290 9999 SCT028 OVC037 18/12 Q1022 NOSIG
10:30
V
17 °C 10 km+ 4.100 ft 240° 240° 7 kt METAR LFBA 010830Z AUTO 24007KT 200V280 9999 FEW032 OVC041 17/12 Q1022 NOSIG
10:00
V
17 °C 10 km+ 3.900 ft 250° 250° 5 kt METAR LFBA 010800Z AUTO 25005KT 210V290 9999 OVC039 17/12 Q1022 NOSIG
09:30
V
15 °C 10 km+ 4.300 ft 240° 240° 6 kt METAR LFBA 010730Z AUTO 24006KT 210V270 9999 OVC043 15/11 Q1022 NOSIG
09:00
V
14 °C 10 km+ 4.300 ft Var Var 3 kt METAR LFBA 010700Z AUTO VRB03KT 9999 OVC043 14/11 Q1021 NOSIG
08:30
V
13 °C 10 km+ 4.400 ft 120° 120° 3 kt METAR LFBA 010630Z AUTO 12003KT 080V180 9999 BKN044 OVC052 13/11 Q1021 NOSIG
08:00
V
12 °C 10 km+ 4.800 ft Var Var 3 kt METAR LFBA 010600Z AUTO VRB03KT 9999 FEW042 BKN048 OVC064 12/11 Q1021 NOSIG
07:30
V
12 °C 10 km+ - 090° 090° 3 kt METAR LFBA 010530Z AUTO 09003KT CAVOK 12/11 Q1020 NOSIG
07:00
V
11 °C 10 km+ 8.000 ft 090° 090° 3 kt METAR LFBA 010500Z AUTO 09003KT 9999 FEW042 OVC080 11/11 Q1020
06:30
V
11 °C 10 km+ 3.900 ft 090° 090° 5 kt METAR LFBA 010430Z AUTO 09005KT 9999 BKN039 OVC048 11/11 Q1020
06:00
V
11 °C 10 km+ 5.400 ft 100° 100° 4 kt METAR LFBA 010400Z AUTO 10004KT 9999 FEW032 BKN054 OVC094 11/11 Q1020
05:30
V
11 °C 10 km+ - 080° 080° 4 kt METAR LFBA 010330Z AUTO 08004KT 040V100 CAVOK 11/10 Q1020
05:00
V
11 °C 10 km+ 15.000 ft 110° 110° 4 kt METAR LFBA 010300Z AUTO 11004KT 9999 FEW045 SCT110 BKN150 11/10 Q1020
04:30
V
11 °C 10 km+ 4.600 ft 090° 090° 3 kt METAR LFBA 010230Z AUTO 09003KT 070V150 9999 BKN046 OVC100 11/10 Q1020
04:00
V
11 °C 10 km+ - Var Var 2 kt METAR LFBA 010200Z AUTO VRB02KT 9999 -RA NSC 11/10 Q1020
03:30
V
11 °C 10 km+ 12.000 ft 080° 080° 3 kt METAR LFBA 010130Z AUTO 08003KT 9999 FEW045 SCT092 BKN120 11/09 Q1019
03:00
V
10 °C 10 km+ 13.000 ft 100° 100° 4 kt METAR LFBA 010100Z AUTO 10004KT 9999 FEW045 SCT098 BKN130 10/09 Q1020
02:30
V
10 °C 10 km+ - 090° 090° 3 kt METAR LFBA 010030Z AUTO 09003KT CAVOK 10/09 Q1020
02:00
V
11 °C 10 km+ - Var 000° 0 kt METAR LFBA 010000Z AUTO 00000KT CAVOK 11/08 Q1020
01:30
V
11 °C 10 km+ - Var Var 3 kt METAR LFBA 302330Z AUTO VRB03KT CAVOK 11/08 Q1020
01:00
V
11 °C 10 km+ - Var Var 1 kt METAR LFBA 302300Z AUTO VRB01KT CAVOK 11/08 Q1020
00:30
V
12 °C 10 km+ - 260° 260° 4 kt METAR LFBA 302230Z AUTO 26004KT 230V290 CAVOK 12/08 Q1020
00:00
V
12 °C 10 km+ - Var Var 1 kt METAR LFBA 302200Z AUTO VRB01KT CAVOK 12/07 Q1019

30 settembre 2022

Tempo Codice Tempo metereologico Temp. Vista Base nuvolosa Vento METAR/SPECI
23:30
V
13 °C 10 km+ - 240° 240° 3 kt METAR LFBA 302130Z AUTO 24003KT CAVOK 13/08 Q1019
23:00
V
13 °C 10 km+ - 230° 230° 3 kt METAR LFBA 302100Z AUTO 23003KT CAVOK 13/08 Q1019
22:30
V
13 °C 10 km+ - 270° 270° 3 kt METAR LFBA 302030Z AUTO 27003KT 230V290 CAVOK 13/08 Q1019
22:00
V
14 °C 10 km+ - 270° 270° 6 kt METAR LFBA 302000Z AUTO 27006KT CAVOK 14/08 Q1018 NOSIG
21:30
V
15 °C 10 km+ - 260° 260° 6 kt METAR LFBA 301930Z AUTO 26006KT 230V290 CAVOK 15/08 Q1018 NOSIG
21:00
V
15 °C 10 km+ - 240° 240° 5 kt METAR LFBA 301900Z AUTO 24005KT CAVOK 15/07 Q1018 NOSIG
20:30
V
15 °C 10 km+ - 240° 240° 4 kt METAR LFBA 301830Z AUTO 24004KT CAVOK 15/07 Q1017 NOSIG
20:00
V
16 °C 10 km+ - 250° 250° 4 kt METAR LFBA 301800Z AUTO 25004KT CAVOK 16/07 Q1017 NOSIG
19:30
V
16 °C 10 km+ - 280° 280° 4 kt METAR LFBA 301730Z AUTO 28004KT CAVOK 16/07 Q1017 NOSIG
19:00
V
18 °C 10 km+ - 320° 320° 6 kt METAR LFBA 301700Z AUTO 32006KT CAVOK 18/07 Q1016 NOSIG
18:30
V
19 °C 10 km+ - 330° 330° 8 kt METAR LFBA 301630Z AUTO 33008KT 290V360 CAVOK 19/08 Q1016 NOSIG
18:00
V
19 °C 10 km+ - 320° 320° 8 kt METAR LFBA 301600Z AUTO 32008KT 290V350 CAVOK 19/07 Q1015 NOSIG
17:30
V
20 °C 10 km+ - 300° 300° 8 kt METAR LFBA 301530Z AUTO 30008KT 260V340 CAVOK 20/08 Q1015 NOSIG
17:00
V
20 °C 10 km+ - 320° 320° 7 kt METAR LFBA 301500Z AUTO 32007KT 290V010 CAVOK 20/08 Q1015 NOSIG
16:30
V
19 °C 10 km+ - 320° 320° 8 kt METAR LFBA 301430Z AUTO 32008KT 280V360 9999 FEW049 19/08 Q1015 NOSIG
16:00
V
20 °C 10 km+ - 300° 300° 8 kt METAR LFBA 301400Z AUTO 30008KT 260V330 9999 SCT047 SCT058 20/09 Q1015 NOSIG
15:30
V
19 °C 10 km+ 4.500 ft 330° 330° 10 kt METAR LFBA 301330Z AUTO 33010KT 270V010 9999 BKN045 BKN058 OVC070 19/08 Q1015 NOSIG
15:00
V
19 °C 10 km+ 6.000 ft 280° 280° 9 kt METAR LFBA 301300Z AUTO 28009KT 220V330 9999 SCT044 BKN060 19/09 Q1015 NOSIG
14:30
V
18 °C 10 km+ - 270° 270° 7 kt METAR LFBA 301230Z AUTO 27007KT 200V330 9999 SCT043 18/08 Q1015 NOSIG
14:00
V
18 °C 10 km+ - 330° 330° 9 kt METAR LFBA 301200Z AUTO 33009KT 280V360 9999 FEW035 18/08 Q1015 NOSIG
13:30
V
18 °C 10 km+ - 290° 290° 7 kt METAR LFBA 301130Z AUTO 29007KT 250V340 9999 SCT036 SCT042 18/10 Q1015 NOSIG
13:00
V
17 °C 10 km+ - 330° 330° 6 kt METAR LFBA 301100Z AUTO 33006KT 290V360 9999 FEW029 SCT035 17/10 Q1015 NOSIG
12:30
V
17 °C 10 km+ 3.000 ft 280° 280° 5 kt METAR LFBA 301030Z AUTO 28005KT 190V360 9999 BKN030 17/10 Q1015 NOSIG
12:00
V
16 °C 10 km+ - 290° 290° 7 kt METAR LFBA 301000Z AUTO 29007KT 260V350 9999 FEW023 16/11 Q1015 NOSIG
11:30
V
15 °C 10 km+ - 300° 300° 6 kt METAR LFBA 300930Z AUTO 30006KT 270V340 CAVOK 15/11 Q1014 NOSIG
11:00
V
14 °C 10 km+ - Var Var 3 kt METAR LFBA 300900Z AUTO VRB03KT CAVOK 14/10 Q1014 NOSIG
Dati più vecchi

Noi e le terze parti seguiamo il tuo comportamento in internet sul nostro sito web con i cookie. Se continui, riteniamo che tu sia d'accordo con la nostra politica sui cookie. Per saperne di più